Terminal Aerodrome Forecast
Issued by NWS

Home | Current Version | Previous Version | Text Only | Print | Product List | Glossary On
Versions: 1 2 3 4 5 6 7 8 9 10 11 12 13 14 15 16 17
000
FTUS41 KPBZ 191920 AAA
TAFZZV
TAF AMD
KZZV 191920Z 1919/2018 24010G20KT P6SM VCTS BKN040CB
      TEMPO 1920/1922 27015G35KT 2SM TSRA BKN025CB
     FM200000 28005KT P6SM SCT040
     FM200900 00000KT 2SM BR SKC
     FM201400 VRB04KT P6SM SKC=

USA.gov is the U.S. government's official web portal to all federal, state and local government web resources and services.